Time;durP1;ratioP1;P1;durP2;ratioP2;P2;SDS_P1;SDS_P2;PMS_P1;PMS_P2;Temp;Humidity;BMP_temperature;BMP_pressure;BME280_temperature;BME280_humidity;BME280_pressure;Samples;Min_cycle;Max_cycle;Signal;HPM_P1;HPM_P2
2023/09/10 00:00:21;;;;;;;;;;;16.20;99.90;;;;;;4998541;28;19905;-79
2023/09/10 00:02:47;;;;;;;;;;;16.20;99.90;;;;;;4995744;28;19952;-78
2023/09/10 00:05:12;;;;;;;;;;;16.20;99.90;;;;;;4981036;28;19984;-79
2023/09/10 00:07:38;;;;;;;;;;;16.20;99.90;;;;;;4980421;28;19953;-78
2023/09/10 00:10:04;;;;;;;;;;;16.10;99.90;;;;;;4995307;28;19917;-79
2023/09/10 00:12:30;;;;;;;;;;;16.10;99.90;;;;;;5000446;28;19976;-78
2023/09/10 00:14:55;;;;;;;;;;;16.00;99.90;;;;;;4980075;28;19901;-80
2023/09/10 00:17:21;;;;;;;;;;;16.00;99.90;;;;;;4998103;28;20125;-80
2023/09/10 00:19:46;;;;;;;;;;;15.90;99.90;;;;;;4981675;28;20213;-80
2023/09/10 00:22:12;;;;;;;;;;;15.90;99.90;;;;;;4981566;28;19910;-79
2023/09/10 00:24:37;;;;;;;;;;;15.90;99.90;;;;;;4982484;28;20305;-79
2023/09/10 00:27:03;;;;;;;;;;;15.90;99.90;;;;;;4976508;28;20009;-79
2023/09/10 00:29:28;;;;;;;;;;;15.90;99.90;;;;;;4977292;28;20005;-79
2023/09/10 00:31:54;;;;;;;;;;;15.90;99.90;;;;;;4998017;28;19917;-79
2023/09/10 00:34:19;;;;;;;;;;;15.90;99.90;;;;;;4976787;28;20406;-79
2023/09/10 00:36:45;;;;;;;;;;;15.80;99.90;;;;;;4998657;28;20210;-80
2023/09/10 00:39:10;;;;;;;;;;;15.80;99.90;;;;;;4995204;28;19920;-79
2023/09/10 00:41:36;;;;;;;;;;;15.80;99.90;;;;;;4999436;28;19906;-80
2023/09/10 00:44:02;;;;;;;;;;;15.80;99.90;;;;;;5000546;28;20225;-79
2023/09/10 00:46:29;;;;;;;;;;;15.70;99.90;;;;;;4976724;28;19910;-80
2023/09/10 00:48:54;;;;;;;;;;;15.70;99.90;;;;;;4980390;28;19921;-80
2023/09/10 00:51:20;;;;;;;;;;;15.60;99.90;;;;;;4995501;28;20067;-79
2023/09/10 00:53:45;;;;;;;;;;;15.60;99.90;;;;;;4983597;28;19945;-80
2023/09/10 00:56:11;;;;;;;;;;;15.60;99.90;;;;;;4980362;28;19914;-79
2023/09/10 00:58:37;;;;;;;;;;;15.70;99.90;;;;;;4978912;28;20094;-80
2023/09/10 01:01:03;;;;;;;;;;;15.80;99.90;;;;;;4976099;28;19953;-78
2023/09/10 01:03:30;;;;;;;;;;;15.80;99.90;;;;;;4976149;28;20071;-79
2023/09/10 01:05:56;;;;;;;;;;;15.80;99.90;;;;;;4976951;28;20038;-80
2023/09/10 01:08:21;;;;;;;;;;;15.70;99.90;;;;;;4979521;28;19906;-80
2023/09/10 01:11:08;;;;;;;;;;;15.70;99.90;;;;;;4997330;28;19928;-80
2023/09/10 01:13:38;;;;;;;;;;;15.60;99.90;;;;;;4982758;28;19902;-80
2023/09/10 01:16:07;;;;;;;;;;;15.60;99.90;;;;;;4980981;28;20105;-78
2023/09/10 01:18:38;;;;;;;;;;;15.50;99.90;;;;;;4979199;28;19916;-79
2023/09/10 01:21:17;;;;;;;;;;;15.50;99.90;;;;;;4999850;28;19905;-79
2023/09/10 01:23:42;;;;;;;;;;;15.40;99.90;;;;;;4981336;28;20221;-79
2023/09/10 01:26:08;;;;;;;;;;;15.50;99.90;;;;;;4980449;28;19981;-80
2023/09/10 01:28:33;;;;;;;;;;;15.40;99.90;;;;;;4997830;28;19929;-79
2023/09/10 01:30:59;;;;;;;;;;;15.40;99.90;;;;;;4978951;28;19997;-79
2023/09/10 01:33:35;;;;;;;;;;;15.30;99.90;;;;;;4993033;28;20351;-79
2023/09/10 01:36:19;;;;;;;;;;;15.20;99.90;;;;;;4977537;28;20008;-79
2023/09/10 01:38:54;;;;;;;;;;;15.30;99.90;;;;;;4982886;28;19956;-79
2023/09/10 01:41:21;;;;;;;;;;;15.30;99.90;;;;;;4980433;28;20118;-80
2023/09/10 01:43:46;;;;;;;;;;;15.30;99.90;;;;;;4980609;28;20189;-79
2023/09/10 01:46:12;;;;;;;;;;;15.30;99.90;;;;;;4978883;28;20048;-79
2023/09/10 01:48:38;;;;;;;;;;;15.20;99.90;;;;;;4993978;28;19924;-80
2023/09/10 01:51:04;;;;;;;;;;;15.30;99.90;;;;;;4981737;28;19937;-79
2023/09/10 01:53:29;;;;;;;;;;;15.30;99.90;;;;;;4975430;28;20346;-80
2023/09/10 01:55:55;;;;;;;;;;;15.30;99.90;;;;;;4974300;28;19905;-80
2023/09/10 01:58:21;;;;;;;;;;;15.30;99.90;;;;;;4973465;28;19914;-79
2023/09/10 02:00:46;;;;;;;;;;;15.20;99.90;;;;;;4990897;28;19910;-79
2023/09/10 02:03:12;;;;;;;;;;;15.20;99.90;;;;;;4973323;28;20012;-79
2023/09/10 02:05:37;;;;;;;;;;;15.10;99.90;;;;;;4973062;28;20377;-80
2023/09/10 02:08:04;;;;;;;;;;;15.00;99.90;;;;;;4990956;28;19960;-80
2023/09/10 02:10:31;;;;;;;;;;;15.00;99.90;;;;;;4973503;28;19968;-79
2023/09/10 02:12:56;;;;;;;;;;;15.00;99.90;;;;;;4975007;28;19968;-80
2023/09/10 02:15:22;;;;;;;;;;;14.90;99.90;;;;;;4975033;28;20306;-79
2023/09/10 02:17:47;;;;;;;;;;;14.90;99.90;;;;;;4973995;28;19949;-79
2023/09/10 02:20:13;;;;;;;;;;;14.90;99.90;;;;;;4974586;28;20429;-79
2023/09/10 02:22:39;;;;;;;;;;;15.00;99.90;;;;;;4975079;28;20318;-80
2023/09/10 02:25:05;;;;;;;;;;;15.00;99.90;;;;;;4991909;28;19928;-79
2023/09/10 02:27:31;;;;;;;;;;;15.00;99.90;;;;;;4992259;28;20272;-79
2023/09/10 02:29:57;;;;;;;;;;;15.00;99.90;;;;;;4974822;28;20449;-79
2023/09/10 02:32:23;;;;;;;;;;;15.00;99.90;;;;;;4974938;28;19914;-79
2023/09/10 02:34:51;;;;;;;;;;;14.90;99.90;;;;;;4991839;28;19928;-79
2023/09/10 02:37:17;;;;;;;;;;;14.80;99.90;;;;;;4974900;28;19909;-79
2023/09/10 02:39:43;;;;;;;;;;;14.70;99.90;;;;;;4974711;28;19948;-79
2023/09/10 02:42:08;;;;;;;;;;;14.70;99.90;;;;;;4974664;28;19952;-80
2023/09/10 02:44:34;;;;;;;;;;;14.80;99.90;;;;;;4974703;28;19967;-79
2023/09/10 02:46:59;;;;;;;;;;;14.80;99.90;;;;;;4990727;28;20291;-79
2023/09/10 02:49:25;;;;;;;;;;;14.90;99.90;;;;;;4991616;28;20399;-79
2023/09/10 02:51:50;;;;;;;;;;;14.90;99.90;;;;;;4991988;28;19965;-79
2023/09/10 02:54:16;;;;;;;;;;;15.20;99.90;;;;;;4974660;28;19920;-79
2023/09/10 02:56:41;;;;;;;;;;;14.80;99.90;;;;;;4992002;28;19925;-79
2023/09/10 02:59:07;;;;;;;;;;;14.90;99.90;;;;;;4974040;28;20464;-79
2023/09/10 03:01:33;;;;;;;;;;;14.80;99.90;;;;;;4974182;28;20294;-79
2023/09/10 03:03:58;;;;;;;;;;;14.70;99.90;;;;;;4990914;28;19910;-80
2023/09/10 03:06:24;;;;;;;;;;;14.80;99.90;;;;;;4991543;28;20370;-78
2023/09/10 03:08:49;;;;;;;;;;;14.80;99.90;;;;;;4973955;28;19913;-80
2023/09/10 03:11:15;;;;;;;;;;;14.90;99.90;;;;;;4973655;28;19968;-79
2023/09/10 03:13:40;;;;;;;;;;;14.40;99.90;;;;;;4991574;28;20414;-79
2023/09/10 03:16:06;;;;;;;;;;;14.80;99.90;;;;;;4991182;28;19912;-79
2023/09/10 03:18:32;;;;;;;;;;;14.80;99.90;;;;;;4973870;28;19933;-79
2023/09/10 03:20:57;;;;;;;;;;;14.80;99.90;;;;;;4973411;28;19925;-79
2023/09/10 03:23:23;;;;;;;;;;;14.70;99.90;;;;;;4973863;28;20339;-79
2023/09/10 03:25:48;;;;;;;;;;;14.60;99.90;;;;;;4973831;28;19909;-80
2023/09/10 03:28:14;;;;;;;;;;;14.60;99.90;;;;;;4973636;28;19996;-79
2023/09/10 03:30:39;;;;;;;;;;;14.60;99.90;;;;;;4973519;28;19913;-78
2023/09/10 03:33:05;;;;;;;;;;;14.50;99.90;;;;;;4973472;28;20286;-79
2023/09/10 03:35:30;;;;;;;;;;;14.50;99.90;;;;;;4973424;28;20390;-79
2023/09/10 03:37:56;;;;;;;;;;;14.40;99.90;;;;;;4991096;28;19912;-80
2023/09/10 03:40:21;;;;;;;;;;;14.40;99.90;;;;;;4973501;28;19992;-79
2023/09/10 03:42:48;;;;;;;;;;;14.40;99.90;;;;;;4991317;28;19952;-78
2023/09/10 03:45:13;;;;;;;;;;;14.40;99.90;;;;;;4973522;28;19901;-78
2023/09/10 03:47:39;;;;;;;;;;;14.40;99.90;;;;;;4972777;28;20360;-78
2023/09/10 03:50:05;;;;;;;;;;;14.40;99.90;;;;;;4990503;28;19906;-79
2023/09/10 03:52:30;;;;;;;;;;;14.30;99.90;;;;;;4990779;28;19960;-79
2023/09/10 03:54:56;;;;;;;;;;;14.20;99.90;;;;;;4972858;28;20022;-78
2023/09/10 03:57:21;;;;;;;;;;;14.30;99.90;;;;;;4990950;28;20028;-78
2023/09/10 03:59:47;;;;;;;;;;;14.40;99.90;;;;;;4990765;28;19936;-78
2023/09/10 04:02:12;;;;;;;;;;;14.50;99.90;;;;;;4990555;28;20338;-79
2023/09/10 04:04:38;;;;;;;;;;;14.40;99.90;;;;;;4990309;28;19913;-79
2023/09/10 04:07:03;;;;;;;;;;;14.30;99.90;;;;;;4972800;28;19906;-79
2023/09/10 04:09:30;;;;;;;;;;;14.30;99.90;;;;;;4990518;28;19913;-80
2023/09/10 04:11:57;;;;;;;;;;;14.40;99.90;;;;;;4972938;28;19914;-79
2023/09/10 04:14:23;;;;;;;;;;;14.40;99.90;;;;;;4973135;28;20327;-80
2023/09/10 04:16:49;;;;;;;;;;;14.50;99.90;;;;;;4990362;28;20000;-79
2023/09/10 04:19:14;;;;;;;;;;;14.40;99.90;;;;;;4990090;28;20243;-81
2023/09/10 04:21:40;;;;;;;;;;;14.40;99.90;;;;;;4973041;28;20374;-79
2023/09/10 04:24:05;;;;;;;;;;;14.30;99.90;;;;;;4990293;28;19913;-79
2023/09/10 04:26:31;;;;;;;;;;;14.30;99.90;;;;;;4989973;28;19905;-79
2023/09/10 04:28:56;;;;;;;;;;;14.30;99.90;;;;;;4990354;28;20339;-80
2023/09/10 04:31:22;;;;;;;;;;;14.30;99.90;;;;;;4990487;28;20015;-78
2023/09/10 04:33:47;;;;;;;;;;;14.20;99.90;;;;;;4989930;28;19910;-79
2023/09/10 04:36:13;;;;;;;;;;;14.20;99.90;;;;;;4990660;28;20509;-79
2023/09/10 04:38:39;;;;;;;;;;;14.30;99.90;;;;;;4972778;28;19916;-80
2023/09/10 04:41:04;;;;;;;;;;;14.20;99.90;;;;;;4972475;28;20274;-79
2023/09/10 04:43:30;;;;;;;;;;;14.10;99.90;;;;;;4972260;28;19905;-79
2023/09/10 04:45:55;;;;;;;;;;;14.10;99.90;;;;;;4989947;28;19910;-78
2023/09/10 04:48:21;;;;;;;;;;;14.10;99.90;;;;;;4972419;28;20111;-79
2023/09/10 04:50:46;;;;;;;;;;;14.10;99.90;;;;;;4972062;28;20382;-79
2023/09/10 04:53:13;;;;;;;;;;;14.10;99.90;;;;;;4972352;28;20004;-78
2023/09/10 04:55:38;;;;;;;;;;;14.20;99.90;;;;;;4990223;28;19992;-78
2023/09/10 04:58:04;;;;;;;;;;;14.20;99.90;;;;;;4972279;28;20008;-79
2023/09/10 05:00:30;;;;;;;;;;;14.20;99.90;;;;;;4972719;28;19928;-79
2023/09/10 05:02:55;;;;;;;;;;;14.20;99.90;;;;;;4972393;28;19963;-78
2023/09/10 05:05:21;;;;;;;;;;;14.20;99.90;;;;;;4971651;28;19929;-78
2023/09/10 05:07:47;;;;;;;;;;;14.20;99.90;;;;;;4989928;28;19942;-79
2023/09/10 05:10:13;;;;;;;;;;;14.20;99.90;;;;;;4990630;28;19913;-78
2023/09/10 05:12:38;;;;;;;;;;;14.20;99.90;;;;;;4993559;28;19995;-79
2023/09/10 05:15:04;;;;;;;;;;;14.10;99.90;;;;;;4976168;28;20072;-79
2023/09/10 05:17:30;;;;;;;;;;;14.10;99.90;;;;;;4993810;28;19941;-79
2023/09/10 05:19:55;;;;;;;;;;;14.10;99.90;;;;;;4975741;28;19906;-80
2023/09/10 05:22:20;;;;;;;;;;;14.10;99.90;;;;;;4976115;28;20386;-79
2023/09/10 05:24:46;;;;;;;;;;;14.10;99.90;;;;;;4993538;28;19910;-78
2023/09/10 05:27:11;;;;;;;;;;;14.10;99.90;;;;;;4975895;28;20003;-78
2023/09/10 05:29:37;;;;;;;;;;;14.00;99.90;;;;;;4975771;28;19913;-79
2023/09/10 05:32:03;;;;;;;;;;;14.10;99.90;;;;;;4976061;28;19918;-78
2023/09/10 05:34:28;;;;;;;;;;;14.20;99.90;;;;;;4993004;28;19909;-79
2023/09/10 05:36:54;;;;;;;;;;;14.20;99.90;;;;;;4976030;28;20004;-78
2023/09/10 05:39:19;;;;;;;;;;;14.20;99.90;;;;;;4993637;28;19906;-79
2023/09/10 05:41:45;;;;;;;;;;;14.30;99.90;;;;;;4993274;28;20395;-78
2023/09/10 05:44:10;;;;;;;;;;;14.30;99.90;;;;;;4993450;28;19906;-78
2023/09/10 05:46:36;;;;;;;;;;;14.40;99.90;;;;;;4975683;28;19930;-78
2023/09/10 05:49:01;;;;;;;;;;;14.30;99.90;;;;;;4974772;28;20374;-78
2023/09/10 05:51:27;;;;;;;;;;;14.40;99.90;;;;;;4993030;28;19913;-78
2023/09/10 05:53:53;;;;;;;;;;;14.50;99.90;;;;;;4975333;28;19941;-79
2023/09/10 05:56:19;;;;;;;;;;;14.60;99.90;;;;;;4975627;28;19968;-78
2023/09/10 05:58:44;;;;;;;;;;;14.80;99.90;;;;;;4993515;28;19910;-79
2023/09/10 06:01:10;;;;;;;;;;;14.90;99.90;;;;;;4993067;28;19944;-80
2023/09/10 06:03:35;;;;;;;;;;;15.10;99.90;;;;;;4974898;28;19905;-80
2023/09/10 06:06:01;;;;;;;;;;;15.10;99.90;;;;;;4992664;28;20412;-78
2023/09/10 06:08:27;;;;;;;;;;;15.20;99.90;;;;;;4992663;28;20373;-78
2023/09/10 06:10:53;;;;;;;;;;;15.30;99.90;;;;;;4992677;28;20146;-78
2023/09/10 06:13:18;;;;;;;;;;;15.40;99.90;;;;;;4992584;28;20229;-80
2023/09/10 06:15:44;;;;;;;;;;;15.50;99.90;;;;;;4992740;28;20315;-79
2023/09/10 06:18:09;;;;;;;;;;;15.70;99.90;;;;;;4975303;28;19909;-80
2023/09/10 06:20:35;;;;;;;;;;;15.80;99.90;;;;;;4974685;28;20032;-79
2023/09/10 06:23:00;;;;;;;;;;;15.80;99.90;;;;;;4974840;28;19913;-79
2023/09/10 06:25:26;;;;;;;;;;;15.90;99.90;;;;;;4992401;28;19913;-79
2023/09/10 06:27:52;;;;;;;;;;;16.10;99.90;;;;;;4992665;28;19906;-79
2023/09/10 06:30:17;;;;;;;;;;;16.20;99.90;;;;;;4992173;28;20335;-78
2023/09/10 06:32:43;;;;;;;;;;;16.30;99.90;;;;;;4974502;28;19916;-78
2023/09/10 06:35:08;;;;;;;;;;;16.50;99.90;;;;;;4974443;28;19905;-79
2023/09/10 06:37:34;;;;;;;;;;;16.60;99.90;;;;;;4974764;28;19913;-79
2023/09/10 06:40:00;;;;;;;;;;;16.80;99.90;;;;;;4974966;28;19916;-79
2023/09/10 06:42:25;;;;;;;;;;;17.00;99.90;;;;;;4974592;28;20355;-79
2023/09/10 06:44:51;;;;;;;;;;;17.20;99.90;;;;;;4992425;28;20397;-79
2023/09/10 06:47:16;;;;;;;;;;;17.40;99.90;;;;;;4974255;28;20329;-79
2023/09/10 06:49:42;;;;;;;;;;;17.50;99.90;;;;;;4973964;28;19960;-78
2023/09/10 06:52:08;;;;;;;;;;;17.50;99.90;;;;;;4974236;28;19918;-78
2023/09/10 06:54:34;;;;;;;;;;;17.60;99.90;;;;;;4992127;28;20041;-78
2023/09/10 06:57:00;;;;;;;;;;;17.70;99.90;;;;;;4991862;28;20116;-79
2023/09/10 06:59:27;;;;;;;;;;;17.80;99.90;;;;;;4990924;28;19906;-79
2023/09/10 07:01:52;;;;;;;;;;;18.00;99.90;;;;;;4964274;28;19906;-79
2023/09/10 07:04:19;;;;;;;;;;;18.10;99.90;;;;;;4980655;28;20006;-78
2023/09/10 07:06:45;;;;;;;;;;;18.30;99.90;;;;;;4967754;28;20001;-79
2023/09/10 07:09:11;;;;;;;;;;;18.50;99.90;;;;;;4991366;28;20066;-80
2023/09/10 07:11:37;;;;;;;;;;;18.50;99.90;;;;;;4974148;28;20058;-80
2023/09/10 07:14:02;;;;;;;;;;;18.60;99.90;;;;;;4974027;28;20429;-79
2023/09/10 07:16:28;;;;;;;;;;;18.80;99.90;;;;;;4991639;28;19910;-79
2023/09/10 07:18:53;;;;;;;;;;;18.90;99.90;;;;;;4969640;28;19964;-79
2023/09/10 07:21:19;;;;;;;;;;;19.10;99.90;;;;;;4995132;28;20186;-78
2023/09/10 07:23:44;;;;;;;;;;;19.20;99.90;;;;;;4983604;28;20026;-79
2023/09/10 07:26:10;;;;;;;;;;;19.30;99.90;;;;;;4982969;28;20150;-79
2023/09/10 07:28:35;;;;;;;;;;;19.50;99.90;;;;;;5001446;28;19912;-79
2023/09/10 07:31:02;;;;;;;;;;;19.50;99.90;;;;;;5001225;28;19974;-79
2023/09/10 07:33:28;;;;;;;;;;;19.50;99.90;;;;;;4983258;28;19902;-79
2023/09/10 07:35:54;;;;;;;;;;;19.70;99.90;;;;;;5001824;28;19948;-79
2023/09/10 07:38:19;;;;;;;;;;;19.80;99.90;;;;;;4981931;28;19917;-79
2023/09/10 07:40:45;;;;;;;;;;;19.90;99.90;;;;;;5001131;28;19932;-79
2023/09/10 07:43:10;;;;;;;;;;;20.10;99.90;;;;;;5000185;28;19948;-79
2023/09/10 07:45:36;;;;;;;;;;;20.10;99.90;;;;;;5000312;28;19902;-78
2023/09/10 07:48:01;;;;;;;;;;;20.20;99.90;;;;;;4998274;28;20210;-78
2023/09/10 07:50:30;;;;;;;;;;;20.30;99.90;;;;;;5000513;28;19909;-79
2023/09/10 07:52:55;;;;;;;;;;;20.50;99.90;;;;;;4999555;28;20266;-78
2023/09/10 07:55:21;;;;;;;;;;;20.70;99.90;;;;;;4999070;28;19976;-79
2023/09/10 07:57:47;;;;;;;;;;;20.90;99.90;;;;;;4999190;28;19977;-79
2023/09/10 08:00:13;;;;;;;;;;;21.00;99.90;;;;;;4983741;28;19902;-79
2023/09/10 08:02:38;;;;;;;;;;;20.90;99.90;;;;;;4983563;28;20623;-79
2023/09/10 08:05:05;;;;;;;;;;;21.00;99.90;;;;;;4997608;28;19910;-79
2023/09/10 08:07:31;;;;;;;;;;;21.10;99.90;;;;;;4977408;28;20430;-79
2023/09/10 08:09:57;;;;;;;;;;;21.20;99.90;;;;;;4993147;28;19910;-79
2023/09/10 08:12:22;;;;;;;;;;;21.20;99.90;;;;;;4973614;28;19917;-79
2023/09/10 08:14:48;;;;;;;;;;;21.30;99.90;;;;;;4977985;28;19909;-79
2023/09/10 08:17:13;;;;;;;;;;;21.40;99.90;;;;;;4995041;28;20281;-79
2023/09/10 08:19:39;;;;;;;;;;;21.60;99.90;;;;;;4991570;28;19960;-78
2023/09/10 08:22:04;;;;;;;;;;;21.70;99.90;;;;;;4992034;28;19975;-79
2023/09/10 08:24:30;;;;;;;;;;;21.80;99.90;;;;;;4979244;28;19912;-77
2023/09/10 08:26:55;;;;;;;;;;;22.30;99.90;;;;;;4995044;28;19905;-78
2023/09/10 08:29:21;;;;;;;;;;;23.00;99.90;;;;;;4992552;28;19913;-79
2023/09/10 08:31:46;;;;;;;;;;;24.10;99.90;;;;;;4993763;28;19921;-79
2023/09/10 08:34:12;;;;;;;;;;;25.10;99.90;;;;;;4992145;28;19913;-79
2023/09/10 08:36:37;;;;;;;;;;;25.70;99.90;;;;;;4994217;28;19921;-79
2023/09/10 08:39:03;;;;;;;;;;;26.20;99.90;;;;;;4978095;28;19906;-76
2023/09/10 08:41:37;;;;;;;;;;;26.50;99.90;;;;;;4991524;28;19905;-77
2023/09/10 08:44:04;;;;;;;;;;;27.10;99.90;;;;;;4991282;28;19956;-77
2023/09/10 08:46:31;;;;;;;;;;;27.10;99.80;;;;;;4996636;28;19909;-80
2023/09/10 08:48:57;;;;;;;;;;;27.00;98.80;;;;;;4994213;28;19917;-79
2023/09/10 08:51:23;;;;;;;;;;;27.00;98.10;;;;;;4993340;28;20879;-79
2023/09/10 08:53:50;;;;;;;;;;;26.70;98.30;;;;;;4994661;28;19937;-79
2023/09/10 08:56:15;;;;;;;;;;;26.40;98.70;;;;;;4979107;28;19917;-77
2023/09/10 08:58:42;;;;;;;;;;;26.30;98.40;;;;;;4978402;28;19913;-77
2023/09/10 09:01:11;;;;;;;;;;;25.90;99.10;;;;;;4980413;28;19997;-77
2023/09/10 09:03:37;;;;;;;;;;;25.70;99.90;;;;;;4986041;28;19945;-77
2023/09/10 09:06:04;;;;;;;;;;;25.70;99.60;;;;;;4980204;28;19901;-79
2023/09/10 09:08:30;;;;;;;;;;;25.80;99.40;;;;;;4996177;28;19907;-77
2023/09/10 09:10:57;;;;;;;;;;;26.10;98.70;;;;;;4985127;28;19917;-77
2023/09/10 09:13:23;;;;;;;;;;;26.20;99.00;;;;;;4988068;28;19908;-77
2023/09/10 09:15:49;;;;;;;;;;;26.60;98.30;;;;;;5007368;28;19910;-76
2023/09/10 09:18:15;;;;;;;;;;;27.00;97.40;;;;;;4984125;28;19921;-78
2023/09/10 09:20:44;;;;;;;;;;;27.30;96.30;;;;;;4985388;28;19901;-78
2023/09/10 09:23:13;;;;;;;;;;;27.50;95.50;;;;;;4986518;28;19916;-76
2023/09/10 09:25:38;;;;;;;;;;;27.90;94.90;;;;;;5001652;28;19901;-76
2023/09/10 09:28:04;;;;;;;;;;;28.00;94.40;;;;;;4985309;28;20138;-76
2023/09/10 09:30:29;;;;;;;;;;;28.10;93.80;;;;;;5003457;28;19906;-79
2023/09/10 09:32:56;;;;;;;;;;;27.80;94.30;;;;;;5002221;28;19917;-79
2023/09/10 09:35:21;;;;;;;;;;;27.60;93.60;;;;;;4996453;28;19901;-77
2023/09/10 09:37:47;;;;;;;;;;;27.90;93.80;;;;;;4985186;28;20162;-76
2023/09/10 09:40:13;;;;;;;;;;;28.20;93.20;;;;;;4985377;28;19936;-76
2023/09/10 09:42:39;;;;;;;;;;;28.30;92.80;;;;;;4986430;28;19908;-76
2023/09/10 09:45:04;;;;;;;;;;;28.00;92.60;;;;;;5002065;28;19953;-76
2023/09/10 09:47:30;;;;;;;;;;;28.00;93.20;;;;;;5001963;28;19917;-76
2023/09/10 09:49:56;;;;;;;;;;;28.40;93.30;;;;;;4984806;28;19909;-77
2023/09/10 09:52:22;;;;;;;;;;;28.50;92.30;;;;;;5003226;28;20130;-76
2023/09/10 09:54:47;;;;;;;;;;;28.60;91.60;;;;;;4985191;28;19909;-76
2023/09/10 09:57:13;;;;;;;;;;;28.50;92.30;;;;;;4984638;28;19901;-77
2023/09/10 09:59:38;;;;;;;;;;;28.80;92.30;;;;;;4985187;28;20182;-76
2023/09/10 10:02:04;;;;;;;;;;;28.70;91.50;;;;;;4985602;28;19909;-76
2023/09/10 10:04:33;;;;;;;;;;;28.70;90.30;;;;;;4984679;28;20130;-76
2023/09/10 10:06:59;;;;;;;;;;;29.00;90.90;;;;;;4984607;28;20106;-77
2023/09/10 10:09:33;;;;;;;;;;;29.20;91.00;;;;;;4985035;28;19908;-77
2023/09/10 10:11:59;;;;;;;;;;;29.20;90.70;;;;;;5002411;28;19914;-77
2023/09/10 10:14:24;;;;;;;;;;;29.40;89.30;;;;;;5002902;28;20082;-76
2023/09/10 10:16:50;;;;;;;;;;;29.30;89.20;;;;;;4999551;28;19906;-76
2023/09/10 10:19:16;;;;;;;;;;;29.40;89.10;;;;;;5003148;28;19902;-77
2023/09/10 10:21:42;;;;;;;;;;;29.60;88.60;;;;;;5001564;28;19933;-77
2023/09/10 10:24:08;;;;;;;;;;;29.80;88.20;;;;;;4985079;28;19909;-76
2023/09/10 10:26:33;;;;;;;;;;;29.70;87.50;;;;;;4985111;28;20156;-77
2023/09/10 10:29:00;;;;;;;;;;;29.70;88.50;;;;;;5001728;28;19968;-77
2023/09/10 10:31:29;;;;;;;;;;;29.60;85.30;;;;;;5002054;28;20214;-76
2023/09/10 10:33:54;;;;;;;;;;;29.60;85.30;;;;;;4984043;28;19948;-77
2023/09/10 10:36:28;;;;;;;;;;;29.50;86.20;;;;;;4984113;28;19902;-77
2023/09/10 10:38:55;;;;;;;;;;;29.80;86.70;;;;;;4984613;28;19944;-77
2023/09/10 10:41:24;;;;;;;;;;;29.90;87.10;;;;;;5001854;28;19941;-77
2023/09/10 10:44:01;;;;;;;;;;;30.10;87.30;;;;;;5002083;28;20142;-77
2023/09/10 10:46:29;;;;;;;;;;;30.00;85.30;;;;;;4998728;28;20202;-77
2023/09/10 10:48:56;;;;;;;;;;;29.50;86.10;;;;;;5001459;28;19921;-78
2023/09/10 10:51:21;;;;;;;;;;;29.30;86.40;;;;;;5001226;28;20156;-79
2023/09/10 10:53:48;;;;;;;;;;;29.20;88.90;;;;;;5001177;28;20512;-79
2023/09/10 10:56:14;;;;;;;;;;;29.00;86.60;;;;;;4982999;28;20009;-78
2023/09/10 10:58:41;;;;;;;;;;;28.70;87.50;;;;;;5000970;28;19910;-79
2023/09/10 11:01:09;;;;;;;;;;;29.00;87.70;;;;;;5001538;28;19908;-76
2023/09/10 11:03:35;;;;;;;;;;;28.90;87.20;;;;;;5001402;28;20201;-76
2023/09/10 11:06:04;;;;;;;;;;;29.00;86.20;;;;;;5001730;28;19906;-79
2023/09/10 11:08:30;;;;;;;;;;;29.10;88.20;;;;;;4982634;28;20359;-78
2023/09/10 11:10:56;;;;;;;;;;;29.20;87.30;;;;;;5000165;28;20022;-78
2023/09/10 11:13:25;;;;;;;;;;;29.30;86.10;;;;;;4999978;28;20148;-78
2023/09/10 11:16:05;;;;;;;;;;;29.00;85.70;;;;;;4997051;28;19906;-76
2023/09/10 11:18:36;;;;;;;;;;;28.90;87.00;;;;;;4997873;28;20089;-76
2023/09/10 11:21:03;;;;;;;;;;;28.90;86.70;;;;;;5001167;28;19933;-76
2023/09/10 11:23:29;;;;;;;;;;;29.40;86.10;;;;;;5002004;28;20241;-76
2023/09/10 11:26:13;;;;;;;;;;;29.30;85.60;;;;;;5001804;28;19937;-77
2023/09/10 11:28:46;;;;;;;;;;;29.20;85.90;;;;;;4983298;28;19908;-79
2023/09/10 11:31:31;;;;;;;;;;;29.90;84.50;;;;;;4997399;28;19976;-78
2023/09/10 11:33:58;;;;;;;;;;;29.20;84.70;;;;;;4980829;28;19913;-79
2023/09/10 11:36:27;;;;;;;;;;;28.80;86.40;;;;;;4980933;28;19973;-78
2023/09/10 11:38:56;;;;;;;;;;;28.70;87.60;;;;;;4994872;28;19953;-75
2023/09/10 11:41:21;;;;;;;;;;;29.00;87.40;;;;;;4997014;28;19917;-79
2023/09/10 11:43:49;;;;;;;;;;;29.30;85.80;;;;;;4994940;28;20090;-79
2023/09/10 11:46:14;;;;;;;;;;;29.00;86.50;;;;;;4984296;28;20133;-78
2023/09/10 11:48:40;;;;;;;;;;;29.20;85.90;;;;;;4982550;28;19913;-79
2023/09/10 11:51:05;;;;;;;;;;;29.50;85.00;;;;;;5000924;28;19957;-78
2023/09/10 11:53:31;;;;;;;;;;;30.00;84.80;;;;;;4998757;28;19925;-78
2023/09/10 11:55:57;;;;;;;;;;;31.30;81.30;;;;;;5001166;28;20250;-79
2023/09/10 11:58:23;;;;;;;;;;;32.10;80.30;;;;;;4983384;28;19914;-76
2023/09/10 12:00:48;;;;;;;;;;;32.70;77.20;;;;;;4979882;28;19928;-76
2023/09/10 12:03:14;;;;;;;;;;;33.00;74.80;;;;;;5005182;28;19992;-77
2023/09/10 12:05:40;;;;;;;;;;;33.50;74.10;;;;;;5003610;28;20133;-76
2023/09/10 12:08:06;;;;;;;;;;;33.80;75.30;;;;;;4999676;28;19945;-78
2023/09/10 12:10:31;;;;;;;;;;;34.20;72.80;;;;;;4983611;28;20105;-76
2023/09/10 12:13:03;;;;;;;;;;;34.90;69.60;;;;;;4998058;28;19905;-76
2023/09/10 12:15:29;;;;;;;;;;;35.10;66.10;;;;;;4978084;28;19918;-76
2023/09/10 12:17:55;;;;;;;;;;;35.20;66.10;;;;;;5000751;28;19905;-76
2023/09/10 12:20:21;;;;;;;;;;;35.20;65.20;;;;;;4995776;28;19920;-76
2023/09/10 12:22:47;;;;;;;;;;;35.90;64.30;;;;;;4979077;28;20285;-75
2023/09/10 12:25:12;;;;;;;;;;;36.80;63.40;;;;;;4991467;28;19906;-76
2023/09/10 12:27:38;;;;;;;;;;;36.10;62.10;;;;;;4977664;28;19917;-76
2023/09/10 12:30:03;;;;;;;;;;;36.20;63.50;;;;;;4983733;28;19909;-76
2023/09/10 12:32:29;;;;;;;;;;;36.60;62.40;;;;;;4983798;28;19918;-77
2023/09/10 12:34:56;;;;;;;;;;;37.00;61.00;;;;;;4984067;28;19991;-76
2023/09/10 12:37:21;;;;;;;;;;;38.10;61.40;;;;;;4977687;28;19944;-76
2023/09/10 12:39:47;;;;;;;;;;;36.50;59.10;;;;;;4996088;28;19917;-76
2023/09/10 12:42:12;;;;;;;;;;;36.20;59.90;;;;;;4973768;28;19906;-76
2023/09/10 12:44:40;;;;;;;;;;;37.40;59.10;;;;;;4984977;28;19952;-75
2023/09/10 12:47:06;;;;;;;;;;;38.20;57.60;;;;;;4970726;28;19914;-76
2023/09/10 12:49:31;;;;;;;;;;;39.10;56.80;;;;;;4980602;28;19917;-76
2023/09/10 12:51:57;;;;;;;;;;;39.30;56.00;;;;;;4963138;28;20018;-75
2023/09/10 12:54:23;;;;;;;;;;;39.50;57.10;;;;;;4976567;28;19925;-76
2023/09/10 12:56:51;;;;;;;;;;;38.80;56.50;;;;;;4986970;28;19933;-75
2023/09/10 12:59:16;;;;;;;;;;;38.60;55.90;;;;;;4973552;28;19906;-76
2023/09/10 13:01:42;;;;;;;;;;;39.60;55.00;;;;;;4972569;28;19932;-76
2023/09/10 13:04:07;;;;;;;;;;;40.20;54.30;;;;;;4976842;28;20212;-77
2023/09/10 13:06:33;;;;;;;;;;;39.60;55.90;;;;;;4972618;28;19906;-75
2023/09/10 13:09:04;;;;;;;;;;;40.20;53.80;;;;;;4976082;28;19901;-77
2023/09/10 13:11:29;;;;;;;;;;;39.80;52.30;;;;;;4990977;28;19913;-76
2023/09/10 13:13:57;;;;;;;;;;;40.20;52.20;;;;;;4971368;28;20347;-76
2023/09/10 13:16:22;;;;;;;;;;;40.40;52.40;;;;;;4971836;28;20000;-76
2023/09/10 13:18:48;;;;;;;;;;;40.20;51.70;;;;;;4971799;28;20016;-76
2023/09/10 13:21:13;;;;;;;;;;;40.40;51.90;;;;;;4989332;28;20425;-76
2023/09/10 13:23:39;;;;;;;;;;;40.50;51.50;;;;;;4989887;28;19906;-76
2023/09/10 13:26:04;;;;;;;;;;;41.20;50.90;;;;;;4989930;28;20683;-76
2023/09/10 13:28:30;;;;;;;;;;;40.00;51.60;;;;;;4989654;28;19906;-75
2023/09/10 13:30:55;;;;;;;;;;;38.00;54.30;;;;;;4989403;28;19957;-75
2023/09/10 13:33:21;;;;;;;;;;;37.60;54.90;;;;;;4972603;28;19956;-77
2023/09/10 13:35:47;;;;;;;;;;;36.20;55.50;;;;;;4973186;28;19921;-77
2023/09/10 13:38:12;;;;;;;;;;;36.70;56.70;;;;;;4987479;28;19906;-76
2023/09/10 13:40:40;;;;;;;;;;;37.80;54.20;;;;;;4974262;28;19996;-76
2023/09/10 13:43:05;;;;;;;;;;;38.50;53.30;;;;;;4992371;28;20470;-76
2023/09/10 13:45:31;;;;;;;;;;;38.10;52.20;;;;;;4991767;28;19997;-76
2023/09/10 13:47:56;;;;;;;;;;;37.90;51.90;;;;;;4974940;28;19949;-75
2023/09/10 13:50:23;;;;;;;;;;;37.20;53.30;;;;;;4992007;28;19926;-75
2023/09/10 13:52:48;;;;;;;;;;;37.80;50.90;;;;;;4992601;28;20333;-76
2023/09/10 13:55:14;;;;;;;;;;;38.40;52.40;;;;;;4975236;28;19906;-77
2023/09/10 13:57:39;;;;;;;;;;;38.40;51.60;;;;;;4992927;28;19956;-75
2023/09/10 14:00:06;;;;;;;;;;;38.60;50.60;;;;;;4993124;28;19929;-76
2023/09/10 14:02:32;;;;;;;;;;;38.60;50.80;;;;;;4993112;28;19905;-76
2023/09/10 14:04:57;;;;;;;;;;;39.00;50.60;;;;;;4992334;28;20306;-76
2023/09/10 14:07:23;;;;;;;;;;;39.50;50.30;;;;;;4975181;28;19917;-76
2023/09/10 14:09:48;;;;;;;;;;;39.90;50.90;;;;;;4992805;28;19937;-76